sensor_id;sensor_type;location;lat;lon;timestamp;pressure;altitude;pressure_sealevel;temperature;humidity
25350;BME280;13302;48.796;11.978;2022-09-17T00:00:48;96235.59;;;14.63;36.89
25350;BME280;13302;48.796;11.978;2022-09-17T00:03:35;96239.56;;;14.62;37.27
25350;BME280;13302;48.796;11.978;2022-09-17T00:06:24;96247.50;;;14.64;37.34
25350;BME280;13302;48.796;11.978;2022-09-17T00:09:11;96251.88;;;14.65;36.96
25350;BME280;13302;48.796;11.978;2022-09-17T00:11:58;96250.69;;;14.66;37.17
25350;BME280;13302;48.796;11.978;2022-09-17T00:14:45;96253.47;;;14.66;37.14
25350;BME280;13302;48.796;11.978;2022-09-17T00:17:32;96251.50;;;14.66;36.89
25350;BME280;13302;48.796;11.978;2022-09-17T00:20:19;96243.53;;;14.65;37.03
25350;BME280;13302;48.796;11.978;2022-09-17T00:23:08;96234.78;;;14.66;36.82
25350;BME280;13302;48.796;11.978;2022-09-17T00:25:55;96252.28;;;14.67;37.00
25350;BME280;13302;48.796;11.978;2022-09-17T00:28:42;96251.91;;;14.68;36.72
25350;BME280;13302;48.796;11.978;2022-09-17T00:31:34;96255.88;;;14.67;36.58
25350;BME280;13302;48.796;11.978;2022-09-17T00:34:21;96252.69;;;14.69;36.66
25350;BME280;13302;48.796;11.978;2022-09-17T00:37:08;96258.28;;;14.69;36.82
25350;BME280;13302;48.796;11.978;2022-09-17T00:39:55;96266.63;;;14.69;36.76
25350;BME280;13302;48.796;11.978;2022-09-17T00:42:42;96271.75;;;14.67;36.71
25350;BME280;13302;48.796;11.978;2022-09-17T00:45:31;96270.97;;;14.66;36.66
25350;BME280;13302;48.796;11.978;2022-09-17T00:48:18;96279.69;;;14.65;36.34
25350;BME280;13302;48.796;11.978;2022-09-17T00:51:08;96273.72;;;14.63;36.30
25350;BME280;13302;48.796;11.978;2022-09-17T00:53:56;96265.75;;;14.61;36.54
25350;BME280;13302;48.796;11.978;2022-09-17T00:56:43;96270.94;;;14.59;36.21
25350;BME280;13302;48.796;11.978;2022-09-17T00:59:31;96273.72;;;14.59;36.57
25350;BME280;13302;48.796;11.978;2022-09-17T01:02:18;96276.88;;;14.58;36.38
25350;BME280;13302;48.796;11.978;2022-09-17T01:05:06;96268.16;;;14.56;36.00
25350;BME280;13302;48.796;11.978;2022-09-17T01:11:37;96268.53;;;14.51;36.35
25350;BME280;13302;48.796;11.978;2022-09-17T01:14:34;96268.91;;;14.49;36.05
25350;BME280;13302;48.796;11.978;2022-09-17T01:18:02;96277.22;;;14.46;35.94
25350;BME280;13302;48.796;11.978;2022-09-17T01:21:28;96272.47;;;14.43;36.25
25350;BME280;13302;48.796;11.978;2022-09-17T01:24:25;96280.78;;;14.39;36.13
25350;BME280;13302;48.796;11.978;2022-09-17T01:30:54;96286.69;;;14.31;36.18
25350;BME280;13302;48.796;11.978;2022-09-17T01:37:04;96279.50;;;14.22;35.90
25350;BME280;13302;48.796;11.978;2022-09-17T01:40:02;96281.88;;;14.20;35.88
25350;BME280;13302;48.796;11.978;2022-09-17T01:43:04;96277.09;;;14.17;35.75
25350;BME280;13302;48.796;11.978;2022-09-17T01:46:00;96277.88;;;14.14;35.99
25350;BME280;13302;48.796;11.978;2022-09-17T01:48:55;96283.41;;;14.11;36.10
25350;BME280;13302;48.796;11.978;2022-09-17T01:51:47;96281.38;;;14.08;36.03
25350;BME280;13302;48.796;11.978;2022-09-17T01:54:50;96281.34;;;14.04;35.96
25350;BME280;13302;48.796;11.978;2022-09-17T01:57:52;96288.88;;;14.00;35.89
25350;BME280;13302;48.796;11.978;2022-09-17T02:00:44;96286.88;;;13.97;35.77
25350;BME280;13302;48.796;11.978;2022-09-17T02:03:52;96289.19;;;13.92;35.79
25350;BME280;13302;48.796;11.978;2022-09-17T02:06:45;96282.81;;;13.88;36.07
25350;BME280;13302;48.796;11.978;2022-09-17T02:09:42;96280.03;;;13.84;36.45
25350;BME280;13302;48.796;11.978;2022-09-17T02:12:36;96276.84;;;13.82;36.47
25350;BME280;13302;48.796;11.978;2022-09-17T02:15:33;96281.19;;;13.83;36.46
25350;BME280;13302;48.796;11.978;2022-09-17T02:18:26;96280.81;;;13.81;36.38
25350;BME280;13302;48.796;11.978;2022-09-17T02:21:21;96272.09;;;13.83;36.15
25350;BME280;13302;48.796;11.978;2022-09-17T02:24:19;96269.31;;;13.83;36.20
25350;BME280;13302;48.796;11.978;2022-09-17T02:27:19;96268.13;;;13.84;36.44
25350;BME280;13302;48.796;11.978;2022-09-17T02:30:09;96269.72;;;13.85;36.32
25350;BME280;13302;48.796;11.978;2022-09-17T02:32:56;96268.53;;;13.86;35.99
25350;BME280;13302;48.796;11.978;2022-09-17T02:35:43;96271.69;;;13.84;36.21
25350;BME280;13302;48.796;11.978;2022-09-17T02:38:32;96266.53;;;13.83;36.01
25350;BME280;13302;48.796;11.978;2022-09-17T02:41:22;96270.88;;;13.80;36.02
25350;BME280;13302;48.796;11.978;2022-09-17T02:44:20;96264.13;;;13.77;36.10
25350;BME280;13302;48.796;11.978;2022-09-17T02:53:38;96251.78;;;13.75;36.35
25350;BME280;13302;48.796;11.978;2022-09-17T02:56:43;96254.56;;;13.75;36.51
25350;BME280;13302;48.796;11.978;2022-09-17T02:59:56;96247.00;;;13.72;36.37
25350;BME280;13302;48.796;11.978;2022-09-17T03:05:42;96237.13;;;13.74;36.25
25350;BME280;13302;48.796;11.978;2022-09-17T03:08:39;96239.09;;;13.74;36.57
25350;BME280;13302;48.796;11.978;2022-09-17T03:11:26;96236.31;;;13.74;36.66
25350;BME280;13302;48.796;11.978;2022-09-17T03:14:13;96237.88;;;13.75;36.30
25350;BME280;13302;48.796;11.978;2022-09-17T03:17:00;96235.13;;;13.75;36.38
25350;BME280;13302;48.796;11.978;2022-09-17T03:19:47;96238.28;;;13.73;36.61
25350;BME280;13302;48.796;11.978;2022-09-17T03:22:34;96238.31;;;13.77;36.69
25350;BME280;13302;48.796;11.978;2022-09-17T03:25:21;96235.91;;;13.75;36.61
25350;BME280;13302;48.796;11.978;2022-09-17T03:28:08;96241.47;;;13.75;36.36
25350;BME280;13302;48.796;11.978;2022-09-17T03:30:55;96243.88;;;13.77;36.43
25350;BME280;13302;48.796;11.978;2022-09-17T03:33:42;96245.47;;;13.78;36.52
25350;BME280;13302;48.796;11.978;2022-09-17T03:36:29;96238.34;;;13.80;36.50
25350;BME280;13302;48.796;11.978;2022-09-17T03:39:16;96235.56;;;13.80;36.25
25350;BME280;13302;48.796;11.978;2022-09-17T03:42:04;96228.41;;;13.83;36.14
25350;BME280;13302;48.796;11.978;2022-09-17T03:44:51;96226.44;;;13.84;36.03
25350;BME280;13302;48.796;11.978;2022-09-17T03:47:38;96223.66;;;13.84;35.95
25350;BME280;13302;48.796;11.978;2022-09-17T03:50:25;96219.69;;;13.85;35.89
25350;BME280;13302;48.796;11.978;2022-09-17T03:53:12;96224.09;;;13.86;35.98
25350;BME280;13302;48.796;11.978;2022-09-17T03:56:00;96217.72;;;13.85;36.17
25350;BME280;13302;48.796;11.978;2022-09-17T03:58:47;96214.94;;;13.85;36.17
25350;BME280;13302;48.796;11.978;2022-09-17T04:01:34;96218.53;;;13.86;36.15
25350;BME280;13302;48.796;11.978;2022-09-17T04:04:22;96217.72;;;13.85;35.77
25350;BME280;13302;48.796;11.978;2022-09-17T04:07:09;96222.88;;;13.83;35.87
25350;BME280;13302;48.796;11.978;2022-09-17T04:09:56;96213.75;;;13.83;36.18
25350;BME280;13302;48.796;11.978;2022-09-17T04:12:42;96212.16;;;13.82;35.70
25350;BME280;13302;48.796;11.978;2022-09-17T04:15:31;96212.53;;;13.84;35.82
25350;BME280;13302;48.796;11.978;2022-09-17T04:18:17;96207.78;;;13.84;35.72
25350;BME280;13302;48.796;11.978;2022-09-17T04:21:05;96214.94;;;13.85;35.76
25350;BME280;13302;48.796;11.978;2022-09-17T04:23:52;96209.00;;;13.87;35.91
25350;BME280;13302;48.796;11.978;2022-09-17T04:26:39;96201.44;;;13.87;35.83
25350;BME280;13302;48.796;11.978;2022-09-17T04:29:26;96212.56;;;13.87;35.82
25350;BME280;13302;48.796;11.978;2022-09-17T04:32:13;96207.81;;;13.88;35.70
25350;BME280;13302;48.796;11.978;2022-09-17T04:35:00;96205.03;;;13.88;35.48
25350;BME280;13302;48.796;11.978;2022-09-17T04:37:57;96208.22;;;13.86;35.82
25350;BME280;13302;48.796;11.978;2022-09-17T04:40:44;96205.44;;;13.86;35.32
25350;BME280;13302;48.796;11.978;2022-09-17T04:43:32;96202.66;;;13.86;35.76
25350;BME280;13302;48.796;11.978;2022-09-17T04:46:19;96212.56;;;13.87;35.20
25350;BME280;13302;48.796;11.978;2022-09-17T04:49:06;96201.84;;;13.86;35.37
25350;BME280;13302;48.796;11.978;2022-09-17T04:51:54;96211.78;;;13.87;35.52
25350;BME280;13302;48.796;11.978;2022-09-17T04:54:41;96221.31;;;13.86;35.32
25350;BME280;13302;48.796;11.978;2022-09-17T04:57:28;96218.53;;;13.86;35.07
25350;BME280;13302;48.796;11.978;2022-09-17T05:00:16;96215.31;;;13.84;34.94
25350;BME280;13302;48.796;11.978;2022-09-17T05:03:03;96220.09;;;13.83;35.10
25350;BME280;13302;48.796;11.978;2022-09-17T05:05:50;96227.66;;;13.83;35.25
25350;BME280;13302;48.796;11.978;2022-09-17T05:08:37;96228.81;;;13.82;34.89
25350;BME280;13302;48.796;11.978;2022-09-17T05:11:24;96233.97;;;13.79;35.22
25350;BME280;13302;48.796;11.978;2022-09-17T05:14:11;96245.06;;;13.79;34.92
25350;BME280;13302;48.796;11.978;2022-09-17T05:16:59;96249.81;;;13.79;35.13
25350;BME280;13302;48.796;11.978;2022-09-17T05:19:46;96257.38;;;13.78;34.73
25350;BME280;13302;48.796;11.978;2022-09-17T05:22:33;96262.13;;;13.78;34.74
25350;BME280;13302;48.796;11.978;2022-09-17T05:25:21;96266.91;;;13.77;34.98
25350;BME280;13302;48.796;11.978;2022-09-17T05:28:10;96274.44;;;13.77;35.06
25350;BME280;13302;48.796;11.978;2022-09-17T05:31:01;96284.75;;;13.76;34.77
25350;BME280;13302;48.796;11.978;2022-09-17T05:33:48;96300.59;;;13.76;35.04
25350;BME280;13302;48.796;11.978;2022-09-17T05:36:35;96310.13;;;13.75;34.71
25350;BME280;13302;48.796;11.978;2022-09-17T05:39:22;96320.03;;;13.72;35.05
25350;BME280;13302;48.796;11.978;2022-09-17T05:42:11;96342.63;;;13.71;35.24
25350;BME280;13302;48.796;11.978;2022-09-17T05:44:58;96343.78;;;13.66;35.02
25350;BME280;13302;48.796;11.978;2022-09-17T05:47:45;96346.53;;;13.63;35.35
25350;BME280;13302;48.796;11.978;2022-09-17T05:50:32;96347.66;;;13.58;35.47
25350;BME280;13302;48.796;11.978;2022-09-17T05:53:19;96356.41;;;13.57;35.60
25350;BME280;13302;48.796;11.978;2022-09-17T05:56:06;96357.19;;;13.54;35.38
25350;BME280;13302;48.796;11.978;2022-09-17T05:58:56;96377.00;;;13.52;35.25
25350;BME280;13302;48.796;11.978;2022-09-17T06:01:43;96383.72;;;13.51;35.44
25350;BME280;13302;48.796;11.978;2022-09-17T06:04:31;96392.00;;;13.48;34.90
25350;BME280;13302;48.796;11.978;2022-09-17T06:07:20;96396.75;;;13.47;35.09
25350;BME280;13302;48.796;11.978;2022-09-17T06:10:08;96394.00;;;13.47;35.47
25350;BME280;13302;48.796;11.978;2022-09-17T06:12:58;96392.38;;;13.46;35.35
25350;BME280;13302;48.796;11.978;2022-09-17T06:15:50;96387.56;;;13.40;35.27
25350;BME280;13302;48.796;11.978;2022-09-17T06:18:37;96376.91;;;13.42;35.61
25350;BME280;13302;48.796;11.978;2022-09-17T06:21:24;96365.78;;;13.42;35.62
25350;BME280;13302;48.796;11.978;2022-09-17T06:24:11;96368.97;;;13.44;35.64
25350;BME280;13302;48.796;11.978;2022-09-17T06:26:58;96367.00;;;13.44;35.51
25350;BME280;13302;48.796;11.978;2022-09-17T06:29:45;96372.50;;;13.41;35.23
25350;BME280;13302;48.796;11.978;2022-09-17T06:32:32;96368.97;;;13.44;35.43
25350;BME280;13302;48.796;11.978;2022-09-17T06:35:19;96368.19;;;13.47;35.34
25350;BME280;13302;48.796;11.978;2022-09-17T06:38:06;96367.44;;;13.50;35.27
25350;BME280;13302;48.796;11.978;2022-09-17T06:40:53;96374.22;;;13.52;35.62
25350;BME280;13302;48.796;11.978;2022-09-17T06:43:40;96373.44;;;13.55;35.61
25350;BME280;13302;48.796;11.978;2022-09-17T06:46:27;96363.56;;;13.58;35.57
25350;BME280;13302;48.796;11.978;2022-09-17T06:49:14;96361.19;;;13.60;35.40
25350;BME280;13302;48.796;11.978;2022-09-17T06:52:03;96371.53;;;13.63;35.56
25350;BME280;13302;48.796;11.978;2022-09-17T06:54:50;96372.31;;;13.63;35.36
25350;BME280;13302;48.796;11.978;2022-09-17T06:57:37;96371.53;;;13.63;35.46
25350;BME280;13302;48.796;11.978;2022-09-17T07:00:24;96365.16;;;13.62;35.18
25350;BME280;13302;48.796;11.978;2022-09-17T07:03:11;96360.84;;;13.65;35.25
25350;BME280;13302;48.796;11.978;2022-09-17T07:05:58;96352.50;;;13.65;35.52
25350;BME280;13302;48.796;11.978;2022-09-17T07:08:46;96353.72;;;13.67;35.79
25350;BME280;13302;48.796;11.978;2022-09-17T07:11:33;96348.59;;;13.69;35.87
25350;BME280;13302;48.796;11.978;2022-09-17T07:14:20;96352.97;;;13.70;35.81
25350;BME280;13302;48.796;11.978;2022-09-17T07:17:07;96344.63;;;13.70;35.50
25350;BME280;13302;48.796;11.978;2022-09-17T07:19:54;96338.31;;;13.73;35.89
25350;BME280;13302;48.796;11.978;2022-09-17T07:22:41;96340.28;;;13.73;35.73
25350;BME280;13302;48.796;11.978;2022-09-17T07:25:28;96341.44;;;13.72;35.73
25350;BME280;13302;48.796;11.978;2022-09-17T07:28:15;96341.44;;;13.72;35.83
25350;BME280;13302;48.796;11.978;2022-09-17T07:31:03;96353.00;;;13.74;36.44
25350;BME280;13302;48.796;11.978;2022-09-17T07:33:58;96358.91;;;13.72;36.43
25350;BME280;13302;48.796;11.978;2022-09-17T07:36:45;96371.63;;;13.73;36.63
25350;BME280;13302;48.796;11.978;2022-09-17T07:39:32;96370.84;;;13.73;36.54
25350;BME280;13302;48.796;11.978;2022-09-17T07:42:19;96358.91;;;13.72;36.67
25350;BME280;13302;48.796;11.978;2022-09-17T07:45:06;96355.78;;;13.74;36.82
25350;BME280;13302;48.796;11.978;2022-09-17T07:47:53;96351.78;;;13.75;36.76
25350;BME280;13302;48.796;11.978;2022-09-17T07:50:40;96364.50;;;13.76;37.08
25350;BME280;13302;48.796;11.978;2022-09-17T07:53:27;96349.44;;;13.77;37.11
25350;BME280;13302;48.796;11.978;2022-09-17T07:56:14;96362.56;;;13.80;36.92
25350;BME280;13302;48.796;11.978;2022-09-17T07:59:02;96355.81;;;13.81;37.10
25350;BME280;13302;48.796;11.978;2022-09-17T08:01:52;96359.41;;;13.82;36.90
25350;BME280;13302;48.796;11.978;2022-09-17T08:04:42;96361.78;;;13.83;37.27
25350;BME280;13302;48.796;11.978;2022-09-17T08:07:29;96364.56;;;13.83;36.78
25350;BME280;13302;48.796;11.978;2022-09-17T08:10:17;96370.91;;;13.84;37.18
25350;BME280;13302;48.796;11.978;2022-09-17T08:13:07;96378.06;;;13.85;36.95
25350;BME280;13302;48.796;11.978;2022-09-17T08:15:58;96375.28;;;13.85;37.13
25350;BME280;13302;48.796;11.978;2022-09-17T08:18:47;96373.72;;;13.87;37.48
25350;BME280;13302;48.796;11.978;2022-09-17T08:21:35;96366.59;;;13.90;37.41
25350;BME280;13302;48.796;11.978;2022-09-17T08:24:22;96365.44;;;13.91;36.92
25350;BME280;13302;48.796;11.978;2022-09-17T08:27:09;96370.59;;;13.92;37.06
25350;BME280;13302;48.796;11.978;2022-09-17T08:29:56;96371.00;;;13.94;36.90
25350;BME280;13302;48.796;11.978;2022-09-17T08:32:43;96371.81;;;13.95;36.98
25350;BME280;13302;48.796;11.978;2022-09-17T08:35:30;96370.22;;;13.94;37.32
25350;BME280;13302;48.796;11.978;2022-09-17T08:38:17;96376.16;;;13.96;37.11
25350;BME280;13302;48.796;11.978;2022-09-17T08:47:00;96395.22;;;13.94;37.08
25350;BME280;13302;48.796;11.978;2022-09-17T08:49:54;96390.44;;;13.91;37.10
25350;BME280;13302;48.796;11.978;2022-09-17T08:52:55;96390.00;;;13.89;37.05
25350;BME280;13302;48.796;11.978;2022-09-17T08:55:53;96386.03;;;13.86;37.07
25350;BME280;13302;48.796;11.978;2022-09-17T08:59:06;96392.78;;;13.85;36.88
25350;BME280;13302;48.796;11.978;2022-09-17T09:02:19;96388.38;;;13.84;37.27
25350;BME280;13302;48.796;11.978;2022-09-17T09:05:15;96393.94;;;13.84;37.01
25350;BME280;13302;48.796;11.978;2022-09-17T09:11:24;96400.28;;;13.81;36.39
25350;BME280;13302;48.796;11.978;2022-09-17T09:17:26;96408.59;;;13.77;36.55
25350;BME280;13302;48.796;11.978;2022-09-17T09:20:25;96399.81;;;13.75;36.49
25350;BME280;13302;48.796;11.978;2022-09-17T09:23:42;96410.91;;;13.72;36.37
25350;BME280;13302;48.796;11.978;2022-09-17T09:26:43;96406.47;;;13.67;36.19
25350;BME280;13302;48.796;11.978;2022-09-17T09:29:56;96407.25;;;13.64;36.14
25350;BME280;13302;48.796;11.978;2022-09-17T09:35:52;96418.72;;;13.59;36.53
25350;BME280;13302;48.796;11.978;2022-09-17T09:38:52;96422.66;;;13.58;36.39
25350;BME280;13302;48.796;11.978;2022-09-17T09:41:46;96421.09;;;13.57;36.42
25350;BME280;13302;48.796;11.978;2022-09-17T09:44:34;96421.47;;;13.59;36.48
25350;BME280;13302;48.796;11.978;2022-09-17T09:50:44;96423.47;;;13.59;36.99
25350;BME280;13302;48.796;11.978;2022-09-17T09:54:21;96416.72;;;13.60;36.70
25350;BME280;13302;48.796;11.978;2022-09-17T09:57:13;96421.53;;;13.63;36.81
25350;BME280;13302;48.796;11.978;2022-09-17T10:03:17;96423.16;;;13.67;37.23
25350;BME280;13302;48.796;11.978;2022-09-17T10:06:07;96421.22;;;13.71;37.11
25350;BME280;13302;48.796;11.978;2022-09-17T10:11:58;96421.63;;;13.73;37.39
25350;BME280;13302;48.796;11.978;2022-09-17T10:14:46;96421.66;;;13.77;37.47
25350;BME280;13302;48.796;11.978;2022-09-17T10:17:33;96436.75;;;13.79;37.07
25350;BME280;13302;48.796;11.978;2022-09-17T10:20:20;96432.41;;;13.78;37.36
25350;BME280;13302;48.796;11.978;2022-09-17T10:23:10;96440.34;;;13.80;37.08
25350;BME280;13302;48.796;11.978;2022-09-17T10:25:57;96428.84;;;13.82;37.52
25350;BME280;13302;48.796;11.978;2022-09-17T10:28:48;96434.41;;;13.82;37.22
25350;BME280;13302;48.796;11.978;2022-09-17T10:31:51;96434.00;;;13.83;37.52
25350;BME280;13302;48.796;11.978;2022-09-17T10:34:39;96430.88;;;13.85;37.33
25350;BME280;13302;48.796;11.978;2022-09-17T10:37:43;96424.09;;;13.82;37.38
25350;BME280;13302;48.796;11.978;2022-09-17T10:40:31;96432.03;;;13.84;37.63
25350;BME280;13302;48.796;11.978;2022-09-17T10:43:21;96426.09;;;13.85;37.33
25350;BME280;13302;48.796;11.978;2022-09-17T10:46:13;96424.13;;;13.86;37.43
25350;BME280;13302;48.796;11.978;2022-09-17T10:49:18;96429.28;;;13.87;37.32
25350;BME280;13302;48.796;11.978;2022-09-17T10:52:12;96428.13;;;13.88;37.69
25350;BME280;13302;48.796;11.978;2022-09-17T10:58:28;96441.22;;;13.91;37.60
25350;BME280;13302;48.796;11.978;2022-09-17T11:01:55;96434.13;;;13.94;37.47
25350;BME280;13302;48.796;11.978;2022-09-17T11:05:06;96427.41;;;13.95;37.59
25350;BME280;13302;48.796;11.978;2022-09-17T11:08:10;96428.97;;;13.96;37.45
25350;BME280;13302;48.796;11.978;2022-09-17T11:11:09;96423.03;;;13.97;37.53
25350;BME280;13302;48.796;11.978;2022-09-17T11:20:00;96420.28;;;14.01;37.52
25350;BME280;13302;48.796;11.978;2022-09-17T11:26:05;96409.19;;;14.04;37.76
25350;BME280;13302;48.796;11.978;2022-09-17T11:29:11;96406.44;;;14.08;37.49
25350;BME280;13302;48.796;11.978;2022-09-17T11:32:22;96404.13;;;14.13;37.67
25350;BME280;13302;48.796;11.978;2022-09-17T11:35:23;96402.19;;;14.17;37.36
25350;BME280;13302;48.796;11.978;2022-09-17T11:38:32;96401.84;;;14.22;37.18
25350;BME280;13302;48.796;11.978;2022-09-17T11:41:37;96410.19;;;14.22;36.96
25350;BME280;13302;48.796;11.978;2022-09-17T11:44:31;96405.81;;;14.25;36.37
25350;BME280;13302;48.796;11.978;2022-09-17T11:47:33;96402.22;;;14.24;36.51
25350;BME280;13302;48.796;11.978;2022-09-17T11:50:26;96401.44;;;14.24;36.78
25350;BME280;13302;48.796;11.978;2022-09-17T11:53:31;96403.47;;;14.27;36.78
25350;BME280;13302;48.796;11.978;2022-09-17T12:02:50;96384.84;;;14.35;36.40
25350;BME280;13302;48.796;11.978;2022-09-17T12:05:51;96387.25;;;14.40;36.31
25350;BME280;13302;48.796;11.978;2022-09-17T12:09:00;96386.09;;;14.44;36.39
25350;BME280;13302;48.796;11.978;2022-09-17T12:11:59;96386.13;;;14.48;36.09
25350;BME280;13302;48.796;11.978;2022-09-17T12:14:51;96387.75;;;14.52;36.01
25350;BME280;13302;48.796;11.978;2022-09-17T12:17:43;96383.00;;;14.56;35.93
25350;BME280;13302;48.796;11.978;2022-09-17T12:20:35;96392.16;;;14.60;35.48
25350;BME280;13302;48.796;11.978;2022-09-17T12:23:32;96383.03;;;14.63;35.74
25350;BME280;13302;48.796;11.978;2022-09-17T12:26:30;96378.28;;;14.67;35.31
25350;BME280;13302;48.796;11.978;2022-09-17T12:32:47;96361.59;;;14.71;35.50
25350;BME280;13302;48.796;11.978;2022-09-17T12:39:15;96347.69;;;14.75;35.21
25350;BME280;13302;48.796;11.978;2022-09-17T12:45:43;96346.09;;;14.73;34.85
25350;BME280;13302;48.796;11.978;2022-09-17T12:55:06;96342.50;;;14.69;35.17
25350;BME280;13302;48.796;11.978;2022-09-17T13:01:05;96333.75;;;14.67;35.45
25350;BME280;13302;48.796;11.978;2022-09-17T13:03:57;96331.78;;;14.68;35.52
25350;BME280;13302;48.796;11.978;2022-09-17T13:15:59;96338.16;;;14.76;35.98
25350;BME280;13302;48.796;11.978;2022-09-17T13:25:08;96337.03;;;14.87;35.62
25350;BME280;13302;48.796;11.978;2022-09-17T13:28:07;96337.03;;;14.91;35.60
25350;BME280;13302;48.796;11.978;2022-09-17T13:30:59;96321.50;;;14.90;35.15
25350;BME280;13302;48.796;11.978;2022-09-17T13:33:57;96319.19;;;14.92;34.98
25350;BME280;13302;48.796;11.978;2022-09-17T13:36:48;96323.94;;;14.95;35.17
25350;BME280;13302;48.796;11.978;2022-09-17T13:39:44;96318.34;;;14.91;34.88
25350;BME280;13302;48.796;11.978;2022-09-17T13:42:44;96325.94;;;14.94;34.93
25350;BME280;13302;48.796;11.978;2022-09-17T13:48:47;96335.09;;;14.98;34.49
25350;BME280;13302;48.796;11.978;2022-09-17T13:54:35;96341.44;;;14.95;34.73
25350;BME280;13302;48.796;11.978;2022-09-17T13:57:23;96347.81;;;14.96;34.73
25350;BME280;13302;48.796;11.978;2022-09-17T14:00:47;96359.75;;;14.93;34.87
25350;BME280;13302;48.796;11.978;2022-09-17T14:09:31;96340.59;;;14.84;35.29
25350;BME280;13302;48.796;11.978;2022-09-17T14:15:35;96345.34;;;14.77;35.66
25350;BME280;13302;48.796;11.978;2022-09-17T14:21:21;96342.13;;;14.75;35.57
25350;BME280;13302;48.796;11.978;2022-09-17T14:24:34;96351.28;;;14.75;35.49
25350;BME280;13302;48.796;11.978;2022-09-17T14:27:31;96347.31;;;14.76;35.46
25350;BME280;13302;48.796;11.978;2022-09-17T14:30:22;96343.34;;;14.77;35.58
25350;BME280;13302;48.796;11.978;2022-09-17T14:33:27;96330.63;;;14.76;35.40
25350;BME280;13302;48.796;11.978;2022-09-17T14:36:19;96337.38;;;14.75;35.26
25350;BME280;13302;48.796;11.978;2022-09-17T14:39:22;96330.19;;;14.74;35.25
25350;BME280;13302;48.796;11.978;2022-09-17T14:42:15;96328.63;;;14.73;35.13
25350;BME280;13302;48.796;11.978;2022-09-17T14:45:10;96332.59;;;14.72;35.09
25350;BME280;13302;48.796;11.978;2022-09-17T14:48:26;96335.78;;;14.74;35.33
25350;BME280;13302;48.796;11.978;2022-09-17T14:57:01;96341.34;;;14.74;35.39
25350;BME280;13302;48.796;11.978;2022-09-17T14:59:51;96347.69;;;14.75;35.00
25350;BME280;13302;48.796;11.978;2022-09-17T15:02:43;96345.72;;;14.75;35.15
25350;BME280;13302;48.796;11.978;2022-09-17T15:05:35;96341.34;;;14.74;35.00
25350;BME280;13302;48.796;11.978;2022-09-17T15:08:26;96344.13;;;14.78;35.04
25350;BME280;13302;48.796;11.978;2022-09-17T15:11:16;96350.09;;;14.76;34.99
25350;BME280;13302;48.796;11.978;2022-09-17T15:14:05;96360.06;;;14.77;35.13
25350;BME280;13302;48.796;11.978;2022-09-17T15:16:59;96346.13;;;14.77;34.99
25350;BME280;13302;48.796;11.978;2022-09-17T15:19:50;96359.66;;;14.79;34.83
25350;BME280;13302;48.796;11.978;2022-09-17T15:22:41;96358.47;;;14.80;35.13
25350;BME280;13302;48.796;11.978;2022-09-17T15:25:30;96366.81;;;14.80;35.18
25350;BME280;13302;48.796;11.978;2022-09-17T15:28:28;96380.31;;;14.78;35.21
25350;BME280;13302;48.796;11.978;2022-09-17T15:31:19;96377.13;;;14.76;34.57
25350;BME280;13302;48.796;11.978;2022-09-17T15:34:10;96387.84;;;14.73;34.52
25350;BME280;13302;48.796;11.978;2022-09-17T15:37:05;96386.25;;;14.69;34.81
25350;BME280;13302;48.796;11.978;2022-09-17T15:39:53;96384.22;;;14.66;34.49
25350;BME280;13302;48.796;11.978;2022-09-17T15:42:50;96394.53;;;14.62;34.53
25350;BME280;13302;48.796;11.978;2022-09-17T15:45:37;96393.34;;;14.59;34.68
25350;BME280;13302;48.796;11.978;2022-09-17T15:48:36;96395.69;;;14.54;35.04
25350;BME280;13302;48.796;11.978;2022-09-17T15:51:28;96396.84;;;14.53;35.05
25350;BME280;13302;48.796;11.978;2022-09-17T15:54:28;96383.34;;;14.51;35.12
25350;BME280;13302;48.796;11.978;2022-09-17T15:57:16;96382.56;;;14.51;35.60
25350;BME280;13302;48.796;11.978;2022-09-17T16:00:13;96380.94;;;14.50;35.59
25350;BME280;13302;48.796;11.978;2022-09-17T16:09:39;96378.56;;;14.48;35.23
25350;BME280;13302;48.796;11.978;2022-09-17T16:12:27;96378.16;;;14.50;35.31
25350;BME280;13302;48.796;11.978;2022-09-17T16:15:17;96378.16;;;14.50;35.29
25350;BME280;13302;48.796;11.978;2022-09-17T16:18:04;96381.75;;;14.50;35.36
25350;BME280;13302;48.796;11.978;2022-09-17T16:20:51;96393.69;;;14.51;35.30
25350;BME280;13302;48.796;11.978;2022-09-17T16:23:38;96380.16;;;14.53;35.04
25350;BME280;13302;48.796;11.978;2022-09-17T16:26:30;96387.75;;;14.52;35.33
25350;BME280;13302;48.796;11.978;2022-09-17T16:29:18;96384.56;;;14.54;35.20
25350;BME280;13302;48.796;11.978;2022-09-17T16:32:08;96388.50;;;14.53;34.96
25350;BME280;13302;48.796;11.978;2022-09-17T16:34:56;96401.25;;;14.54;35.16
25350;BME280;13302;48.796;11.978;2022-09-17T16:37:47;96395.66;;;14.50;34.93
25350;BME280;13302;48.796;11.978;2022-09-17T16:40:39;96395.66;;;14.50;35.13
25350;BME280;13302;48.796;11.978;2022-09-17T16:43:26;96404.00;;;14.50;34.93
25350;BME280;13302;48.796;11.978;2022-09-17T16:46:14;96397.63;;;14.50;35.04
25350;BME280;13302;48.796;11.978;2022-09-17T16:49:02;96394.47;;;14.48;35.14
25350;BME280;13302;48.796;11.978;2022-09-17T16:51:49;96394.06;;;14.49;35.19
25350;BME280;13302;48.796;11.978;2022-09-17T16:54:36;96402.81;;;14.48;35.20
25350;BME280;13302;48.796;11.978;2022-09-17T16:57:23;96412.31;;;14.47;35.27
25350;BME280;13302;48.796;11.978;2022-09-17T17:00:12;96416.69;;;14.44;35.26
25350;BME280;13302;48.796;11.978;2022-09-17T17:03:00;96407.56;;;14.44;35.00
25350;BME280;13302;48.796;11.978;2022-09-17T17:05:47;96402.75;;;14.41;35.19
25350;BME280;13302;48.796;11.978;2022-09-17T17:08:34;96405.53;;;14.41;34.88